Airfield :
LOGIN :

Register | Disclaimer

   EN    FR    IT 

 










Legend :    VFR   Marginal VFR   IFR   Intensive IFR   Very Intensive IFR
Visi :
Ceiling :
>= 8 km
>= 3000ft
5 to 8 km
1000 to 3000 ft
1500m to 5 km
500 to 1000 ft
800 to 1500m
200 to 500 ft
< 800m
< 200 ft
Symbols :   Thunderstorms  Fog  Heavy snow  Heavy precipitations  Wind > 20 kt
SIGMETs :     Misc.  Thunderstorms  Icing  Turbulence  Mountain Waves  Volcanic Ashes







- Airport Elevation : 1260 ft
- IATA code : LDE
- Download approach charts


LFBT - Tarbes / Ossun

CURRENT METAR :
  • 220800Z AUTO VRB02KT 9999 FEW021 19/15 Q1024 NOSIG

EXPIRED METARs :
  • 220730Z AUTO VRB02KT 9999 OVC021 18/16 Q1024 NOSIG
  • 220700Z AUTO VRB02KT 9999 OVC022 17/15 Q1024 NOSIG
  • 220630Z AUTO VRB02KT 9999 FEW006 OVC022 17/15 Q1024 NOSIG
  • 220600Z AUTO 02002KT 9999 OVC021 16/15 Q1024 TEMPO BKN005

TAF TAF LFBT
Valid from the 22 at 06:00 until the 23 at 06:00 UTC


220500Z 2206/2306 04005KT 9999 BKN025
PROB30
TEMPO 2206/2207 BKN005
BECMG 2208/2210 CAVOK
No reported NOTAMs for that airfield.



MET'MAP, your aeronautical weather chart ! - Copyright ORBIFLY December 2007 - Disclaimer

ORBIFLY MET'MAP TEAM :

Programming & Development : Alexandra Zaïnal
Concept & Development : Baudouin d'Aumeries
Co-Development & Prog : Marc-Olivier Méhu
Technical & hardware support : Manuel Goepfert

Contact : metmap@orbifly.com




SOURCES & CREDITS :

   NOAA